Time;durP1;ratioP1;P1;durP2;ratioP2;P2;SDS_P1;SDS_P2;PMS_P1;PMS_P2;Temp;Humidity;BMP_temperature;BMP_pressure;BME280_temperature;BME280_humidity;BME280_pressure;Samples;Min_cycle;Max_cycle;Signal;HPM_P1;HPM_P2
2022/07/17 00:00:44;;;;;;;7.90;6.10;;;18.40;99.90;;;;;;5057929;28;20154;-51
2022/07/17 00:03:14;;;;;;;10.05;6.18;;;18.40;99.90;;;;;;5057862;28;20032;-51
2022/07/17 00:05:41;;;;;;;11.40;5.85;;;18.30;99.90;;;;;;5057920;28;20099;-51
2022/07/17 00:08:09;;;;;;;9.13;6.30;;;18.20;99.90;;;;;;5057724;28;20028;-51
2022/07/17 00:10:37;;;;;;;8.15;6.50;;;18.30;99.90;;;;;;5057588;28;20025;-51
2022/07/17 00:13:03;;;;;;;11.95;6.40;;;18.30;99.90;;;;;;5057364;28;20102;-51
2022/07/17 00:15:29;;;;;;;9.10;6.55;;;18.30;99.90;;;;;;5057679;28;20029;-50
2022/07/17 00:17:55;;;;;;;8.88;6.05;;;18.30;99.90;;;;;;5057537;28;20082;-51
2022/07/17 00:20:24;;;;;;;9.25;6.25;;;18.20;99.90;;;;;;5057460;28;20040;-51
2022/07/17 00:22:55;;;;;;;8.75;6.13;;;18.10;99.90;;;;;;5057376;28;20035;-51
2022/07/17 00:25:21;;;;;;;9.05;6.28;;;18.00;99.90;;;;;;5057507;28;20025;-51
2022/07/17 00:27:47;;;;;;;13.23;6.70;;;18.00;99.90;;;;;;5057792;28;20032;-51
2022/07/17 00:30:14;;;;;;;8.88;6.18;;;18.00;99.90;;;;;;5057273;28;20070;-51
2022/07/17 00:32:41;;;;;;;12.32;6.72;;;17.90;99.90;;;;;;5057307;28;20436;-51
2022/07/17 00:35:07;;;;;;;11.95;6.47;;;17.80;99.90;;;;;;5057946;28;20114;-50
2022/07/17 00:37:42;;;;;;;9.80;6.07;;;17.90;99.90;;;;;;5057076;28;20025;-51
2022/07/17 00:40:11;;;;;;;7.70;5.72;;;17.80;99.90;;;;;;5057336;28;20483;-51
2022/07/17 00:42:39;;;;;;;12.27;6.65;;;17.70;99.90;;;;;;5055902;28;20029;-50
2022/07/17 00:45:07;;;;;;;10.40;6.78;;;17.70;99.90;;;;;;5056993;28;20029;-50
2022/07/17 00:47:33;;;;;;;13.63;6.65;;;17.80;99.90;;;;;;5055814;28;20025;-51
2022/07/17 00:49:59;;;;;;;9.90;7.13;;;17.70;99.90;;;;;;5057025;28;20033;-51
2022/07/17 00:52:25;;;;;;;8.90;6.80;;;17.60;99.90;;;;;;5056965;28;20463;-51
2022/07/17 00:54:52;;;;;;;9.02;6.22;;;17.60;99.90;;;;;;5056995;28;20099;-51
2022/07/17 00:57:20;;;;;;;9.48;5.95;;;17.70;99.90;;;;;;5056773;28;20024;-51
2022/07/17 00:59:46;;;;;;;8.93;7.15;;;17.70;99.90;;;;;;5056915;28;20199;-51
2022/07/17 01:02:16;;;;;;;10.02;7.03;;;17.70;99.90;;;;;;5056788;28;20025;-51
2022/07/17 01:04:42;;;;;;;12.35;6.82;;;17.60;99.90;;;;;;5056769;28;20540;-51
2022/07/17 01:07:08;;;;;;;13.13;6.72;;;17.50;99.90;;;;;;5056757;28;20025;-51
2022/07/17 01:09:34;;;;;;;9.98;6.63;;;17.50;99.90;;;;;;5056616;28;20032;-51
2022/07/17 01:12:00;;;;;;;10.57;6.68;;;17.40;99.90;;;;;;5056295;28;20644;-51
2022/07/17 01:14:27;;;;;;;10.82;6.88;;;17.50;99.90;;;;;;5057049;28;20029;-51
2022/07/17 01:16:54;;;;;;;8.57;6.75;;;17.40;99.90;;;;;;5056622;28;20041;-51
2022/07/17 01:19:21;;;;;;;11.60;7.10;;;17.30;99.90;;;;;;5056325;28;20040;-51
2022/07/17 01:21:50;;;;;;;12.60;7.45;;;17.30;99.90;;;;;;5056240;28;20047;-51
2022/07/17 01:24:17;;;;;;;14.55;6.70;;;17.30;99.90;;;;;;5056527;28;20079;-51
2022/07/17 01:26:44;;;;;;;10.45;7.25;;;17.30;99.90;;;;;;5038560;28;20027;-51
2022/07/17 01:29:12;;;;;;;16.27;7.47;;;17.30;99.90;;;;;;5056210;28;20031;-51
2022/07/17 01:31:38;;;;;;;9.43;7.00;;;17.30;99.90;;;;;;5056405;28;20037;-51
2022/07/17 01:34:07;;;;;;;14.18;6.97;;;17.20;99.90;;;;;;5056128;28;20041;-51
2022/07/17 01:36:34;;;;;;;12.82;7.32;;;17.20;99.90;;;;;;5056259;28;20497;-51
2022/07/17 01:39:01;;;;;;;10.57;6.97;;;17.20;99.90;;;;;;5056028;28;20059;-51
2022/07/17 01:41:27;;;;;;;11.25;7.07;;;17.20;99.90;;;;;;5056072;28;20142;-51
2022/07/17 01:43:53;;;;;;;11.13;7.05;;;17.20;99.90;;;;;;5056110;28;20067;-51
2022/07/17 01:46:19;;;;;;;13.75;7.70;;;17.20;99.90;;;;;;5056047;28;20028;-51
2022/07/17 01:48:45;;;;;;;12.50;7.57;;;17.10;99.90;;;;;;5055905;28;20029;-51
2022/07/17 01:51:11;;;;;;;9.80;6.78;;;17.10;99.90;;;;;;5056014;28;20029;-51
2022/07/17 01:53:37;;;;;;;12.80;7.95;;;17.10;99.90;;;;;;5055667;28;20029;-50
2022/07/17 01:56:03;;;;;;;11.30;7.88;;;17.00;99.90;;;;;;5055684;28;20033;-50
2022/07/17 01:58:29;;;;;;;10.05;6.35;;;16.90;99.90;;;;;;5056476;28;20428;-51
2022/07/17 02:00:55;;;;;;;11.75;6.90;;;16.90;99.90;;;;;;5055643;28;20033;-51
2022/07/17 02:03:21;;;;;;;9.82;7.15;;;16.90;99.90;;;;;;5055623;28;20025;-51
2022/07/17 02:05:48;;;;;;;10.85;7.10;;;16.80;99.90;;;;;;5055734;28;20021;-51
2022/07/17 02:08:13;;;;;;;9.73;6.70;;;16.70;99.90;;;;;;5055406;28;20629;-51
2022/07/17 02:10:39;;;;;;;12.40;7.15;;;16.80;99.90;;;;;;5055337;28;20422;-51
2022/07/17 02:13:05;;;;;;;13.15;7.43;;;16.80;99.90;;;;;;5037968;28;20040;-51
2022/07/17 02:15:32;;;;;;;9.55;6.53;;;16.80;99.90;;;;;;5055392;28;20040;-51
2022/07/17 02:17:58;;;;;;;11.80;6.90;;;16.70;99.90;;;;;;5055593;28;20044;-51
2022/07/17 02:20:24;;;;;;;13.45;8.15;;;16.80;99.90;;;;;;5055262;28;20033;-51
2022/07/17 02:22:50;;;;;;;14.25;8.18;;;16.90;99.90;;;;;;5055305;28;20394;-51
2022/07/17 02:25:16;;;;;;;10.57;7.32;;;16.90;99.90;;;;;;5055342;28;20480;-51
2022/07/17 02:27:43;;;;;;;11.30;7.20;;;16.70;99.90;;;;;;5055340;28;20028;-51
2022/07/17 02:30:13;;;;;;;10.38;6.95;;;16.90;99.90;;;;;;5055058;28;20032;-51
2022/07/17 02:32:39;;;;;;;14.70;8.30;;;16.90;99.90;;;;;;5054974;28;20517;-51
2022/07/17 02:35:07;;;;;;;12.10;7.72;;;16.70;99.90;;;;;;5055125;28;20037;-51
2022/07/17 02:37:33;;;;;;;10.68;7.78;;;16.70;99.90;;;;;;5054942;28;20574;-51
2022/07/17 02:39:59;;;;;;;13.50;7.25;;;16.70;99.90;;;;;;5054992;28;20398;-51
2022/07/17 02:42:27;;;;;;;14.02;8.32;;;16.60;99.90;;;;;;5055004;28;20028;-51
2022/07/17 02:44:54;;;;;;;13.40;7.95;;;16.60;99.90;;;;;;5054780;28;20063;-51
2022/07/17 02:47:24;;;;;;;10.90;7.72;;;16.60;99.90;;;;;;5054849;28;20219;-51
2022/07/17 02:49:51;;;;;;;12.30;7.20;;;16.60;99.90;;;;;;5054897;28;20032;-51
2022/07/17 02:52:18;;;;;;;10.63;7.20;;;16.60;99.90;;;;;;5054742;28;20039;-51
2022/07/17 02:54:44;;;;;;;11.90;7.57;;;16.60;99.90;;;;;;5054675;28;20167;-51
2022/07/17 02:57:10;;;;;;;11.18;6.90;;;16.60;99.90;;;;;;5053457;28;20033;-51
2022/07/17 02:59:36;;;;;;;9.55;6.80;;;16.70;99.90;;;;;;5054541;28;20025;-50
2022/07/17 03:02:03;;;;;;;9.35;6.78;;;16.70;99.90;;;;;;5054793;28;20029;-51
2022/07/17 03:04:29;;;;;;;12.43;7.72;;;16.80;99.90;;;;;;5054680;28;20441;-51
2022/07/17 03:06:55;;;;;;;13.48;7.18;;;16.80;99.90;;;;;;5054532;28;20029;-50
2022/07/17 03:09:21;;;;;;;8.45;5.68;;;16.90;99.90;;;;;;5054517;28;20036;-51
2022/07/17 03:11:47;;;;;;;9.70;6.47;;;16.80;99.90;;;;;;5054449;28;20490;-51
2022/07/17 03:14:13;;;;;;;9.82;6.45;;;16.80;99.90;;;;;;5053667;28;20025;-51
2022/07/17 03:16:39;;;;;;;11.05;6.53;;;16.70;99.90;;;;;;5054494;28;20483;-51
2022/07/17 03:19:05;;;;;;;9.40;6.03;;;16.80;99.90;;;;;;5054504;28;20063;-51
2022/07/17 03:21:31;;;;;;;8.32;6.50;;;16.80;99.90;;;;;;5054250;28;20029;-51
2022/07/17 03:23:57;;;;;;;12.80;6.93;;;16.80;99.90;;;;;;5054410;28;20060;-51
2022/07/17 03:26:22;;;;;;;15.10;7.00;;;16.80;99.90;;;;;;5054271;28;20037;-51
2022/07/17 03:28:48;;;;;;;9.52;6.90;;;16.70;99.90;;;;;;5054259;28;20151;-51
2022/07/17 03:31:14;;;;;;;13.13;7.82;;;16.70;99.90;;;;;;5054409;28;20028;-51
2022/07/17 03:33:40;;;;;;;12.38;7.40;;;16.60;99.90;;;;;;5053998;28;20435;-51
2022/07/17 03:36:07;;;;;;;14.07;7.85;;;16.60;99.90;;;;;;5054408;28;20035;-51
2022/07/17 03:38:33;;;;;;;16.08;7.82;;;16.70;99.90;;;;;;5054394;28;20052;-51
2022/07/17 03:40:59;;;;;;;20.83;7.57;;;16.70;99.90;;;;;;5054054;28;20033;-51
2022/07/17 03:43:26;;;;;;;19.38;7.50;;;16.70;99.90;;;;;;5054081;28;20029;-51
2022/07/17 03:45:52;;;;;;;21.15;7.88;;;16.70;99.90;;;;;;5053969;28;20025;-51
2022/07/17 03:48:18;;;;;;;21.42;7.95;;;16.70;99.90;;;;;;5054180;28;20025;-51
2022/07/17 03:50:44;;;;;;;21.60;7.80;;;16.70;99.90;;;;;;5054097;28;20032;-51
2022/07/17 03:53:10;;;;;;;20.85;8.43;;;16.80;99.90;;;;;;5053968;28;20542;-51
2022/07/17 03:55:36;;;;;;;25.80;9.25;;;16.80;99.90;;;;;;5054118;28;20033;-51
2022/07/17 03:58:02;;;;;;;20.25;9.30;;;16.90;99.90;;;;;;5053921;28;20038;-51
2022/07/17 04:00:28;;;;;;;24.73;9.20;;;16.90;99.90;;;;;;5054235;28;20040;-51
2022/07/17 04:02:54;;;;;;;31.15;10.32;;;17.10;99.90;;;;;;5053956;28;20033;-51
2022/07/17 04:05:20;;;;;;;30.67;11.30;;;17.10;99.90;;;;;;5053902;28;20101;-51
2022/07/17 04:07:46;;;;;;;28.00;11.23;;;17.20;99.90;;;;;;5054046;28;20108;-51
2022/07/17 04:10:15;;;;;;;26.63;11.85;;;17.20;99.90;;;;;;5053839;28;20040;-51
2022/07/17 04:12:41;;;;;;;21.65;10.80;;;17.30;99.90;;;;;;5053795;28;20132;-51
2022/07/17 04:15:08;;;;;;;27.48;12.85;;;17.40;99.90;;;;;;5053747;28;20564;-51
2022/07/17 04:17:35;;;;;;;27.75;12.43;;;17.60;99.90;;;;;;5053805;28;20025;-51
2022/07/17 04:20:01;;;;;;;27.02;14.43;;;17.60;99.90;;;;;;5053786;28;20028;-51
2022/07/17 04:22:27;;;;;;;27.45;14.48;;;17.70;99.90;;;;;;5053820;28;20368;-51
2022/07/17 04:24:53;;;;;;;25.85;14.15;;;17.70;99.90;;;;;;5053249;28;20089;-51
2022/07/17 04:27:19;;;;;;;24.92;13.68;;;17.80;99.90;;;;;;5057571;28;20021;-51
2022/07/17 04:29:45;;;;;;;21.58;13.90;;;17.90;99.90;;;;;;5057412;28;20355;-51
2022/07/17 04:32:11;;;;;;;25.77;13.52;;;17.90;99.90;;;;;;5057206;28;20078;-51
2022/07/17 04:34:37;;;;;;;25.55;13.63;;;17.90;99.90;;;;;;5057514;28;20139;-51
2022/07/17 04:37:03;;;;;;;32.55;15.63;;;18.00;99.90;;;;;;5057482;28;20025;-51
2022/07/17 04:39:30;;;;;;;31.17;15.52;;;18.10;99.90;;;;;;5057233;28;20123;-51
2022/07/17 04:41:56;;;;;;;30.52;16.65;;;18.10;99.90;;;;;;5057472;28;20429;-51
2022/07/17 04:44:22;;;;;;;31.38;16.40;;;18.10;99.90;;;;;;5057060;28;20028;-51
2022/07/17 04:46:48;;;;;;;33.70;16.83;;;18.20;99.90;;;;;;5057104;28;20116;-51
2022/07/17 04:49:14;;;;;;;32.63;17.23;;;18.30;99.90;;;;;;5057410;28;20033;-51
2022/07/17 04:51:40;;;;;;;31.75;18.00;;;18.30;99.90;;;;;;5057430;28;20382;-51
2022/07/17 04:54:06;;;;;;;32.40;17.27;;;18.30;99.90;;;;;;5056975;28;20056;-51
2022/07/17 04:56:32;;;;;;;33.85;17.90;;;18.40;99.90;;;;;;5057133;28;20053;-51
2022/07/17 04:58:58;;;;;;;44.85;19.15;;;18.50;99.90;;;;;;5056723;28;20047;-51
2022/07/17 05:01:24;;;;;;;50.50;19.30;;;18.50;99.90;;;;;;5056940;28;20059;-51
2022/07/17 05:03:50;;;;;;;41.15;17.02;;;18.60;99.90;;;;;;5056958;28;20028;-51
2022/07/17 05:06:16;;;;;;;38.47;17.50;;;18.70;99.90;;;;;;5056794;28;20021;-51
2022/07/17 05:08:42;;;;;;;35.40;16.58;;;18.70;99.90;;;;;;5056652;28;20034;-51
2022/07/17 05:11:08;;;;;;;31.40;14.18;;;18.80;99.90;;;;;;5056538;28;20506;-51
2022/07/17 05:13:34;;;;;;;24.85;14.45;;;18.80;99.90;;;;;;5056809;28;20033;-51
2022/07/17 05:16:00;;;;;;;27.15;13.18;;;18.90;99.90;;;;;;5056853;28;20390;-51
2022/07/17 05:18:26;;;;;;;23.55;13.10;;;19.10;99.90;;;;;;5056658;28;20017;-51
2022/07/17 05:20:52;;;;;;;23.58;13.05;;;19.30;99.90;;;;;;5056322;28;20124;-51
2022/07/17 05:23:18;;;;;;;19.13;12.35;;;19.40;99.90;;;;;;5056450;28;20029;-51
2022/07/17 05:25:44;;;;;;;20.77;11.10;;;19.50;99.90;;;;;;5055426;28;20075;-51
2022/07/17 05:28:09;;;;;;;21.17;10.40;;;19.60;99.90;;;;;;5056268;28;20075;-51
2022/07/17 05:30:35;;;;;;;26.58;12.15;;;19.70;99.90;;;;;;5056249;28;20061;-51
2022/07/17 05:33:01;;;;;;;27.13;11.07;;;19.90;99.90;;;;;;5056300;28;20052;-51
2022/07/17 05:35:27;;;;;;;27.75;10.65;;;20.00;99.90;;;;;;5056173;28;20458;-51
2022/07/17 05:37:53;;;;;;;35.67;11.57;;;20.10;99.90;;;;;;5037319;28;20041;-51
2022/07/17 05:40:19;;;;;;;25.73;10.27;;;20.30;99.90;;;;;;5056150;28;20033;-51
2022/07/17 05:42:45;;;;;;;25.63;11.43;;;20.40;99.90;;;;;;5056039;28;20052;-51
2022/07/17 05:45:11;;;;;;;31.95;11.48;;;20.40;99.90;;;;;;5055919;28;20090;-51
2022/07/17 05:47:37;;;;;;;28.25;11.50;;;20.50;99.90;;;;;;5055972;28;20025;-51
2022/07/17 05:50:03;;;;;;;24.00;10.60;;;20.60;99.90;;;;;;5056010;28;20466;-51
2022/07/17 05:52:29;;;;;;;20.05;10.68;;;20.70;99.90;;;;;;5055875;28;20164;-51
2022/07/17 05:54:55;;;;;;;24.75;10.23;;;20.80;99.90;;;;;;5055823;28;20055;-51
2022/07/17 05:57:21;;;;;;;21.70;9.30;;;20.90;99.90;;;;;;5037824;28;20033;-51
2022/07/17 05:59:47;;;;;;;20.23;10.40;;;21.00;99.90;;;;;;5055798;28;20032;-51
2022/07/17 06:02:13;;;;;;;32.35;12.30;;;21.10;99.90;;;;;;5055748;28;20044;-51
2022/07/17 06:04:39;;;;;;;25.52;10.27;;;21.30;99.90;;;;;;5055837;28;20020;-51
2022/07/17 06:07:04;;;;;;;25.05;10.57;;;21.40;99.90;;;;;;5055707;28;20105;-51
2022/07/17 06:09:31;;;;;;;16.70;9.60;;;21.50;99.90;;;;;;5055846;28;20024;-51
2022/07/17 06:11:57;;;;;;;19.25;9.63;;;21.60;99.90;;;;;;5055261;28;20106;-51
2022/07/17 06:14:24;;;;;;;23.02;9.20;;;21.80;99.90;;;;;;5055786;28;20033;-51
2022/07/17 06:16:50;;;;;;;19.02;9.60;;;21.70;99.90;;;;;;5055475;28;20024;-51
2022/07/17 06:19:17;;;;;;;17.75;9.00;;;22.00;99.90;;;;;;5055272;28;20367;-51
2022/07/17 06:21:42;;;;;;;18.00;8.13;;;22.20;99.90;;;;;;5055552;28;20025;-52
2022/07/17 06:24:09;;;;;;;18.38;9.05;;;22.40;99.80;;;;;;5055352;28;20103;-52
2022/07/17 06:26:34;;;;;;;17.52;8.27;;;22.80;98.90;;;;;;5055168;28;20126;-52
2022/07/17 06:29:00;;;;;;;18.23;7.20;;;23.10;96.20;;;;;;5055375;28;20021;-51
2022/07/17 06:31:27;;;;;;;15.23;6.72;;;23.30;91.10;;;;;;5055196;28;20025;-52
2022/07/17 06:33:53;;;;;;;15.10;6.82;;;23.60;85.90;;;;;;5054844;28;20051;-51
2022/07/17 06:36:19;;;;;;;8.68;5.07;;;23.80;81.20;;;;;;5055216;28;20025;-51
2022/07/17 06:38:45;;;;;;;13.25;6.10;;;24.00;74.00;;;;;;5054984;28;20032;-52
2022/07/17 06:41:11;;;;;;;9.27;4.53;;;24.20;73.60;;;;;;5054776;28;20033;-52
2022/07/17 06:43:37;;;;;;;11.57;4.60;;;24.10;68.60;;;;;;5055235;28;20031;-52
2022/07/17 06:46:02;;;;;;;8.65;4.00;;;24.20;66.10;;;;;;5054879;28;20025;-51
2022/07/17 06:48:28;;;;;;;9.82;4.15;;;24.30;64.20;;;;;;5054608;28;20108;-52
2022/07/17 06:50:54;;;;;;;10.40;4.60;;;24.40;63.40;;;;;;5054916;28;20086;-52
2022/07/17 06:53:21;;;;;;;10.38;4.80;;;24.60;64.70;;;;;;5054692;28;20140;-51
2022/07/17 06:55:47;;;;;;;10.18;5.35;;;24.60;64.40;;;;;;5054769;28;20059;-52
2022/07/17 06:58:13;;;;;;;12.95;4.53;;;24.70;62.50;;;;;;5054888;28;20363;-52
2022/07/17 07:00:40;;;;;;;7.68;4.13;;;24.70;61.20;;;;;;5054505;28;20029;-52
2022/07/17 07:03:06;;;;;;;11.27;4.82;;;24.80;60.60;;;;;;5054576;28;20029;-52
2022/07/17 07:05:31;;;;;;;13.23;5.20;;;24.80;59.40;;;;;;5054698;28;20044;-51
2022/07/17 07:07:57;;;;;;;14.32;6.50;;;24.80;60.60;;;;;;5054439;28;20032;-51
2022/07/17 07:10:23;;;;;;;15.95;6.25;;;24.90;60.60;;;;;;5054347;28;20363;-52
2022/07/17 07:12:49;;;;;;;15.95;5.45;;;25.10;59.20;;;;;;5054620;28;20044;-51
2022/07/17 07:15:16;;;;;;;7.97;4.68;;;25.10;57.80;;;;;;5054528;28;20440;-52
2022/07/17 07:17:42;;;;;;;13.68;4.60;;;25.00;58.20;;;;;;5054224;28;20050;-51
2022/07/17 07:20:09;;;;;;;10.52;4.50;;;25.20;57.30;;;;;;5054274;28;20421;-52
2022/07/17 07:22:36;;;;;;;10.75;3.63;;;25.40;60.80;;;;;;5054209;28;20115;-51
2022/07/17 07:25:03;;;;;;;7.88;3.20;;;25.40;54.10;;;;;;5054440;28;20391;-51
2022/07/17 07:27:29;;;;;;;6.97;2.70;;;25.40;52.60;;;;;;5054594;28;20033;-52
2022/07/17 07:29:55;;;;;;;6.63;2.60;;;25.30;53.30;;;;;;5054215;28;20044;-52
2022/07/17 07:32:21;;;;;;;6.75;3.08;;;25.10;52.00;;;;;;5054065;28;20451;-51
2022/07/17 07:34:47;;;;;;;5.90;2.72;;;25.40;55.60;;;;;;5054322;28;20032;-52
2022/07/17 07:37:13;;;;;;;5.03;2.55;;;25.50;51.30;;;;;;5054002;28;20124;-52
2022/07/17 07:39:39;;;;;;;6.55;2.20;;;25.70;54.80;;;;;;5054107;28;20029;-52
2022/07/17 07:42:05;;;;;;;9.45;2.70;;;25.90;52.20;;;;;;5054062;28;20033;-52
2022/07/17 07:44:31;;;;;;;9.25;2.42;;;26.00;51.40;;;;;;5053863;28;20032;-52
2022/07/17 07:46:57;;;;;;;6.03;2.55;;;26.10;48.80;;;;;;5054066;28;20031;-52
2022/07/17 07:49:23;;;;;;;6.68;2.25;;;26.50;50.60;;;;;;5054136;28;20467;-52
2022/07/17 07:51:48;;;;;;;10.68;3.35;;;26.80;48.40;;;;;;5054000;28;20028;-52
2022/07/17 07:54:14;;;;;;;4.65;1.95;;;27.00;45.60;;;;;;5054123;28;20487;-52
2022/07/17 07:56:40;;;;;;;5.50;2.35;;;27.50;46.00;;;;;;5053872;28;20098;-52
2022/07/17 07:59:06;;;;;;;6.65;2.28;;;27.90;45.40;;;;;;5053782;28;20063;-52
2022/07/17 08:01:32;;;;;;;8.15;2.38;;;28.20;44.20;;;;;;5057780;28;20025;-52
2022/07/17 08:03:58;;;;;;;4.93;2.25;;;27.70;40.70;;;;;;5058091;28;20111;-52
2022/07/17 08:06:24;;;;;;;6.88;2.53;;;27.70;42.10;;;;;;5057708;28;20052;-52
2022/07/17 08:08:50;;;;;;;6.63;2.97;;;27.30;39.80;;;;;;5057805;28;20119;-52
2022/07/17 08:11:16;;;;;;;9.88;3.42;;;27.60;42.10;;;;;;5057773;28;20045;-52
2022/07/17 08:13:42;;;;;;;7.75;2.45;;;27.90;42.30;;;;;;5057738;28;20029;-52
2022/07/17 08:16:08;;;;;;;3.95;1.73;;;27.80;40.30;;;;;;5057757;28;20520;-52
2022/07/17 08:18:34;;;;;;;4.85;2.42;;;27.90;39.60;;;;;;5057679;28;20079;-52
2022/07/17 08:21:00;;;;;;;5.65;2.10;;;28.50;41.80;;;;;;5057190;28;20036;-52
2022/07/17 08:23:27;;;;;;;5.43;2.63;;;29.10;40.00;;;;;;5057734;28;20098;-52
2022/07/17 08:25:53;;;;;;;6.88;2.78;;;29.30;38.60;;;;;;5057592;28;20044;-52
2022/07/17 08:28:18;;;;;;;4.18;2.28;;;29.90;39.80;;;;;;5039708;28;20105;-52
2022/07/17 08:30:44;;;;;;;8.98;2.42;;;29.50;35.70;;;;;;5057468;28;20029;-52
2022/07/17 08:33:10;;;;;;;7.90;2.13;;;28.00;37.40;;;;;;5057274;28;20386;-52
2022/07/17 08:35:37;;;;;;;3.53;1.90;;;28.60;38.40;;;;;;5057245;28;20025;-52
2022/07/17 08:38:03;;;;;;;8.18;2.50;;;28.80;39.90;;;;;;5057386;28;20134;-52
2022/07/17 08:40:35;;;;;;;5.60;1.77;;;29.30;38.00;;;;;;5057332;28;20037;-52
2022/07/17 08:43:03;;;;;;;5.82;1.58;;;29.40;37.10;;;;;;5057164;28;20025;-52
2022/07/17 08:45:29;;;;;;;5.32;2.15;;;30.00;38.10;;;;;;5057207;28;20024;-52
2022/07/17 08:47:56;;;;;;;8.85;1.70;;;30.30;36.10;;;;;;5057063;28;20025;-52
2022/07/17 08:50:29;;;;;;;7.00;2.30;;;30.60;36.20;;;;;;5057116;28;20529;-52
2022/07/17 08:52:55;;;;;;;4.03;2.35;;;30.70;35.30;;;;;;5057008;28;20167;-52
2022/07/17 08:55:21;;;;;;;3.15;1.33;;;31.10;35.00;;;;;;5056883;28;20063;-52
2022/07/17 08:57:47;;;;;;;2.50;1.63;;;31.00;33.00;;;;;;5056834;28;20032;-52
2022/07/17 09:00:15;;;;;;;4.60;1.55;;;30.60;32.80;;;;;;5056923;28;20025;-52
2022/07/17 09:02:59;;;;;;;5.68;2.20;;;28.90;35.10;;;;;;5056770;28;20518;-52
2022/07/17 09:05:30;;;;;;;3.83;1.75;;;30.20;37.00;;;;;;5056946;28;20025;-52
2022/07/17 09:07:56;;;;;;;;;;;29.70;34.60;;;;;;5057140;28;20021;-52
2022/07/17 09:10:31;;;;;;;5.32;1.88;;;29.20;34.30;;;;;;5056541;28;20015;-52
2022/07/17 09:12:58;;;;;;;3.55;1.80;;;28.70;36.50;;;;;;5055594;28;20033;-52
2022/07/17 09:15:24;;;;;;;13.50;3.00;;;29.70;36.20;;;;;;5056613;28;20086;-52
2022/07/17 09:17:52;;;;;;;11.25;2.90;;;30.30;35.40;;;;;;5056553;28;20029;-52
2022/07/17 09:20:20;;;;;;;3.55;1.85;;;29.60;35.60;;;;;;5056556;28;20051;-52
2022/07/17 09:23:00;;;;;;;7.97;2.22;;;30.00;36.90;;;;;;5056305;28;20025;-52
2022/07/17 09:25:53;;;;;;;3.30;1.80;;;30.70;34.70;;;;;;5056394;28;20108;-52
2022/07/17 09:28:20;;;;;;;4.88;1.95;;;29.30;35.00;;;;;;5055104;28;20045;-52
2022/07/17 09:30:48;;;;;;;4.30;1.88;;;28.60;36.90;;;;;;5056389;28;20036;-52
2022/07/17 09:33:17;;;;;;;6.13;1.80;;;29.60;35.90;;;;;;5056141;28;20029;-52
2022/07/17 09:35:55;;;;;;;3.85;1.80;;;29.70;35.60;;;;;;5056313;28;20483;-52
2022/07/17 09:38:33;;;;;;;3.25;1.60;;;30.40;35.30;;;;;;5056124;28;20025;-52
2022/07/17 09:41:11;;;;;;;4.82;1.90;;;29.90;33.30;;;;;;5038133;28;20086;-52
2022/07/17 09:44:01;;;;;;;5.45;1.55;;;28.90;36.30;;;;;;5056059;28;20101;-52
2022/07/17 09:46:30;;;;;;;3.70;1.98;;;29.70;32.30;;;;;;5055892;28;20425;-52
2022/07/17 09:48:58;;;;;;;8.60;2.40;;;30.30;35.80;;;;;;5056109;28;20075;-52
2022/07/17 09:51:25;;;;;;;6.63;2.72;;;30.60;33.60;;;;;;5055937;28;20036;-52
2022/07/17 09:53:58;;;;;;;4.47;1.80;;;31.40;33.40;;;;;;5055860;28;20467;-52
2022/07/17 09:56:26;;;;;;;4.60;1.65;;;30.50;34.10;;;;;;5055767;28;20092;-52
2022/07/17 09:58:54;;;;;;;5.47;2.10;;;30.50;32.80;;;;;;5055724;28;20037;-52
2022/07/17 10:01:21;;;;;;;4.85;1.77;;;31.20;33.30;;;;;;5055718;28;20194;-52
2022/07/17 10:03:52;;;;;;;10.45;3.58;;;30.00;32.70;;;;;;5055848;28;20063;-52
2022/07/17 10:06:23;;;;;;;3.45;1.80;;;30.40;33.00;;;;;;5055700;28;20116;-52
2022/07/17 10:08:50;;;;;;;2.85;1.73;;;30.70;33.60;;;;;;5055674;28;20033;-52
2022/07/17 10:11:20;;;;;;;6.05;1.70;;;31.00;33.10;;;;;;5055475;28;20115;-52
2022/07/17 10:13:46;;;;;;;;;;;31.70;32.80;;;;;;5055996;28;20056;-52
2022/07/17 10:16:15;;;;;;;4.03;1.65;;;30.60;32.00;;;;;;5055540;28;19909;-52
2022/07/17 10:18:43;;;;;;;4.60;1.60;;;31.60;33.00;;;;;;5055468;28;20104;-52
2022/07/17 10:21:09;;;;;;;2.42;1.30;;;31.90;32.00;;;;;;5055252;28;20028;-52
2022/07/17 10:23:38;;;;;;;12.10;2.10;;;32.30;31.70;;;;;;5054979;28;20025;-52
2022/07/17 10:26:04;;;;;;;5.25;1.90;;;31.70;30.80;;;;;;5055214;28;20029;-52
2022/07/17 10:28:44;;;;;;;4.82;1.55;;;32.20;32.40;;;;;;5055303;28;20032;-52
2022/07/17 10:31:21;;;;;;;;;;;31.90;31.50;;;;;;5055576;28;20037;-52
2022/07/17 10:34:12;;;;;;;5.75;1.80;;;32.30;32.60;;;;;;5055068;28;19909;-52
2022/07/17 10:36:41;;;;;;;6.72;1.67;;;31.40;31.00;;;;;;5054897;28;20061;-52
2022/07/17 10:39:22;;;;;;;5.05;1.90;;;30.20;32.50;;;;;;5054980;28;20061;-52
2022/07/17 10:42:01;;;;;;;3.22;1.75;;;31.20;32.60;;;;;;5054936;28;20048;-52
2022/07/17 10:44:31;;;;;;;6.30;2.63;;;32.20;31.20;;;;;;5055122;28;20061;-52
2022/07/17 10:46:58;;;;;;;3.95;1.45;;;31.80;29.90;;;;;;5036985;28;20060;-52
2022/07/17 10:49:25;;;;;;;4.22;1.60;;;32.00;31.50;;;;;;5054891;28;20037;-52
2022/07/17 10:51:51;;;;;;;3.97;1.50;;;31.90;29.80;;;;;;5055000;28;20025;-52
2022/07/17 10:54:19;;;;;;;2.33;1.50;;;30.80;32.10;;;;;;5054775;28;20036;-52
2022/07/17 10:56:45;;;;;;;3.50;1.48;;;32.00;31.10;;;;;;5054683;28;20415;-52
2022/07/17 10:59:11;;;;;;;3.72;2.20;;;32.20;30.80;;;;;;5054657;28;20557;-52
2022/07/17 11:01:38;;;;;;;7.07;2.00;;;32.70;29.90;;;;;;5054678;28;20037;-52
2022/07/17 11:04:06;;;;;;;7.70;2.85;;;33.30;30.00;;;;;;5054660;28;20032;-52
2022/07/17 11:06:36;;;;;;;3.42;1.95;;;32.60;29.10;;;;;;5054590;28;20028;-52
2022/07/17 11:09:09;;;;;;;;;;;32.00;30.00;;;;;;5054906;28;20017;-52
2022/07/17 11:11:39;;;;;;;56.42;19.35;;;32.30;30.10;;;;;;5054271;28;20290;-52
2022/07/17 11:14:14;;;;;;;;;;;32.20;29.80;;;;;;5055055;28;20447;-52
2022/07/17 11:16:47;;;;;;;4.18;2.13;;;32.60;29.30;;;;;;5054504;28;19913;-52
2022/07/17 11:19:20;;;;;;;6.78;2.50;;;32.80;28.70;;;;;;5054194;28;20037;-52
2022/07/17 11:21:47;;;;;;;4.90;2.10;;;33.50;29.50;;;;;;5036648;28;20036;-52
2022/07/17 11:24:13;;;;;;;37.42;16.33;;;33.60;28.60;;;;;;5054212;28;20016;-52
2022/07/17 11:26:39;;;;;;;43.80;18.75;;;33.10;27.60;;;;;;5054339;28;20059;-52
2022/07/17 11:29:05;;;;;;;129.10;58.80;;;33.90;27.80;;;;;;5054334;28;20379;-52
2022/07/17 11:31:31;;;;;;;25.55;11.55;;;33.50;26.60;;;;;;5054371;28;20029;-52
2022/07/17 11:34:06;;;;;;;17.27;7.15;;;34.00;28.20;;;;;;5053584;28;20382;-52
2022/07/17 11:36:37;;;;;;;8.38;3.28;;;32.80;27.60;;;;;;5054055;28;20024;-52
2022/07/17 11:39:10;;;;;;;3.35;1.60;;;33.20;28.70;;;;;;5054185;28;20163;-52
2022/07/17 11:41:41;;;;;;;3.28;1.42;;;31.20;29.40;;;;;;5054217;28;20036;-52
2022/07/17 11:44:15;;;;;;;7.53;2.10;;;32.20;30.40;;;;;;5054272;28;20103;-52
2022/07/17 11:46:44;;;;;;;5.28;1.30;;;32.90;29.60;;;;;;5054107;28;20021;-52
2022/07/17 11:49:11;;;;;;;1.77;1.23;;;33.20;28.60;;;;;;5054107;28;20474;-52
2022/07/17 11:51:41;;;;;;;3.78;1.52;;;32.30;28.80;;;;;;5053963;28;20148;-52
2022/07/17 11:54:08;;;;;;;;;;;33.50;29.10;;;;;;5054446;28;20021;-52
2022/07/17 11:56:35;;;;;;;3.78;1.30;;;34.10;28.20;;;;;;5054151;28;19999;-52
2022/07/17 11:59:02;;;;;;;2.63;1.55;;;31.90;28.90;;;;;;5053986;28;20065;-52
2022/07/17 12:01:42;;;;;;;2.58;1.63;;;32.90;30.60;;;;;;5053973;28;20029;-52
2022/07/17 12:04:14;;;;;;;2.20;1.33;;;33.20;28.60;;;;;;5054091;28;20475;-52
2022/07/17 12:06:40;;;;;;;9.52;1.92;;;33.70;28.00;;;;;;5053848;28;20111;-52
2022/07/17 12:09:07;;;;;;;2.10;1.20;;;32.50;28.20;;;;;;5053825;28;20029;-52
2022/07/17 12:11:48;;;;;;;3.90;1.35;;;33.10;28.90;;;;;;5053784;28;20073;-52
2022/07/17 12:14:14;;;;;;;2.00;1.20;;;32.80;28.30;;;;;;5053929;28;20029;-52
2022/07/17 12:16:40;;;;;;;2.40;1.33;;;32.30;28.30;;;;;;5053826;28;20506;-52
2022/07/17 12:19:08;;;;;;;3.53;1.10;;;32.60;30.20;;;;;;5053843;28;20025;-52
2022/07/17 12:22:04;;;;;;;5.40;1.38;;;33.30;29.30;;;;;;5053820;28;20033;-52
2022/07/17 12:24:39;;;;;;;2.28;1.05;;;32.60;28.40;;;;;;5036101;28;20119;-52
2022/07/17 12:27:08;;;;;;;5.55;1.50;;;32.00;29.60;;;;;;5053835;28;20491;-52
2022/07/17 12:29:34;;;;;;;3.88;1.75;;;32.30;29.30;;;;;;5053649;28;20382;-52
2022/07/17 12:32:10;;;;;;;2.35;1.30;;;32.20;28.90;;;;;;5053733;28;20039;-52
2022/07/17 12:34:44;;;;;;;8.13;2.05;;;32.80;29.40;;;;;;5053711;28;20471;-52
2022/07/17 12:37:18;;;;;;;7.47;1.52;;;33.30;29.00;;;;;;5053435;28;20444;-52
2022/07/17 12:39:46;;;;;;;2.92;1.30;;;33.20;28.10;;;;;;5053755;28;20037;-52
2022/07/17 12:42:16;;;;;;;3.83;1.42;;;32.60;29.00;;;;;;5053521;28;20436;-52